Time;durP1;ratioP1;P1;durP2;ratioP2;P2;SDS_P1;SDS_P2;PMS_P1;PMS_P2;Temp;Humidity;BMP_temperature;BMP_pressure;BME280_temperature;BME280_humidity;BME280_pressure;Samples;Min_cycle;Max_cycle;Signal;HPM_P1;HPM_P2
2022/08/30 00:02:28;;;;;;;3.97;1.70;;;13.90;84.00;;;;;;4975635;28;20205;-88
2022/08/30 00:04:54;;;;;;;2.93;1.77;;;13.90;84.10;;;;;;4957872;28;20206;-88
2022/08/30 00:07:19;;;;;;;2.70;1.90;;;13.90;84.20;;;;;;4958468;28;20170;-88
2022/08/30 00:09:45;;;;;;;4.83;2.17;;;13.80;84.40;;;;;;4958234;28;20186;-88
2022/08/30 00:12:10;;;;;;;8.23;2.40;;;13.80;84.60;;;;;;4957875;28;20192;-88
2022/08/30 00:14:36;;;;;;;5.63;2.50;;;13.80;84.70;;;;;;4975171;28;20230;-88
2022/08/30 00:17:06;;;;;;;3.40;2.30;;;13.80;84.90;;;;;;4957844;28;20653;-88
2022/08/30 00:19:32;;;;;;;4.80;2.10;;;13.80;84.90;;;;;;4958007;28;20681;-88
2022/08/30 00:21:58;;;;;;;7.70;1.77;;;13.80;84.90;;;;;;4958896;28;20190;-88
2022/08/30 00:24:23;;;;;;;2.50;1.60;;;13.70;84.80;;;;;;4957884;28;20207;-88
2022/08/30 00:26:49;;;;;;;3.67;2.20;;;13.80;84.80;;;;;;4974878;28;20198;-88
2022/08/30 00:29:14;;;;;;;2.13;1.90;;;13.80;84.70;;;;;;4957718;28;20181;-88
2022/08/30 00:31:40;;;;;;;6.37;2.43;;;13.70;84.60;;;;;;4975185;28;20175;-88
2022/08/30 00:34:06;;;;;;;4.43;2.03;;;13.80;84.60;;;;;;4957789;28;20211;-87
2022/08/30 00:36:31;;;;;;;4.57;2.00;;;13.70;84.40;;;;;;4957539;28;20183;-88
2022/08/30 00:38:57;;;;;;;3.87;1.93;;;13.70;84.40;;;;;;4974792;28;20257;-88
2022/08/30 00:41:22;;;;;;;6.10;2.07;;;13.70;84.40;;;;;;4957523;28;20190;-88
2022/08/30 00:43:48;;;;;;;5.67;2.10;;;13.60;84.30;;;;;;4957768;28;20209;-88
2022/08/30 00:46:13;;;;;;;3.67;2.07;;;13.70;84.30;;;;;;4956889;28;20211;-88
2022/08/30 00:48:43;;;;;;;2.00;1.80;;;13.60;84.30;;;;;;4974895;28;20166;-88
2022/08/30 00:51:11;;;;;;;7.23;2.17;;;13.60;84.30;;;;;;4957390;28;20641;-88
2022/08/30 00:53:41;;;;;;;6.03;2.10;;;13.60;84.40;;;;;;4957157;28;20191;-88
2022/08/30 00:56:07;;;;;;;2.80;1.73;;;13.60;84.50;;;;;;4957198;28;20178;-88
2022/08/30 00:58:40;;;;;;;4.40;2.30;;;13.60;84.60;;;;;;4974534;28;20645;-88
2022/08/30 01:01:07;;;;;;;2.80;2.03;;;13.60;84.60;;;;;;4957317;28;20703;-88
2022/08/30 01:03:35;;;;;;;4.33;2.00;;;13.70;84.70;;;;;;4957709;28;20635;-88
2022/08/30 01:06:03;;;;;;;5.33;2.47;;;13.70;84.60;;;;;;4957115;28;20261;-88
2022/08/30 01:08:29;;;;;;;4.97;2.17;;;13.70;84.70;;;;;;4957558;28;20175;-88
2022/08/30 01:10:56;;;;;;;3.13;2.10;;;13.70;84.70;;;;;;4957933;28;20182;-88
2022/08/30 01:13:24;;;;;;;6.67;2.20;;;13.80;84.70;;;;;;4956938;28;20190;-88
2022/08/30 01:15:50;;;;;;;5.23;2.23;;;13.80;84.60;;;;;;4957109;28;20178;-88
2022/08/30 01:18:17;;;;;;;2.23;1.93;;;13.80;84.70;;;;;;4956988;28;20214;-88
2022/08/30 01:20:53;;;;;;;2.03;1.83;;;13.80;84.70;;;;;;4957332;28;20245;-88
2022/08/30 01:23:20;;;;;;;2.90;1.77;;;13.80;84.70;;;;;;4956977;28;20194;-88
2022/08/30 01:25:48;;;;;;;5.93;2.20;;;13.80;84.70;;;;;;4974450;28;20244;-88
2022/08/30 01:28:19;;;;;;;5.63;2.20;;;13.80;84.50;;;;;;4957845;28;20182;-87
2022/08/30 01:30:46;;;;;;;3.33;1.97;;;13.80;84.40;;;;;;4974359;28;20163;-88
2022/08/30 01:33:12;;;;;;;2.23;1.93;;;13.80;84.20;;;;;;4974568;28;20214;-89
2022/08/30 01:36:03;;;;;;;3.30;2.20;;;13.80;84.20;;;;;;4957536;28;20194;-88
2022/08/30 01:38:41;;;;;;;4.13;2.37;;;13.80;84.10;;;;;;4966448;28;20769;-89
2022/08/30 01:41:33;;;;;;;5.97;2.00;;;13.80;84.10;;;;;;4957232;28;20289;-88
2022/08/30 01:44:02;;;;;;;5.90;2.00;;;13.80;84.00;;;;;;4956533;28;20213;-89
2022/08/30 01:46:35;;;;;;;14.43;2.20;;;13.80;83.80;;;;;;4957576;28;20211;-88
2022/08/30 01:49:04;;;;;;;7.07;2.17;;;13.90;83.80;;;;;;4956874;28;20171;-88
2022/08/30 01:51:30;;;;;;;6.47;2.07;;;13.90;83.70;;;;;;4956807;28;20182;-88
2022/08/30 01:53:56;;;;;;;11.13;2.10;;;13.90;83.80;;;;;;4956611;28;20198;-88
2022/08/30 01:56:23;;;;;;;5.03;2.13;;;14.00;83.90;;;;;;4975763;28;20183;-88
2022/08/30 01:58:49;;;;;;;5.37;1.80;;;14.00;83.80;;;;;;4960220;28;20182;-88
2022/08/30 02:01:19;;;;;;;4.07;2.53;;;14.00;83.80;;;;;;4960590;28;20238;-88
2022/08/30 02:03:45;;;;;;;5.47;1.97;;;14.00;83.80;;;;;;4960463;28;20206;-88
2022/08/30 02:06:15;;;;;;;7.37;2.00;;;14.00;83.60;;;;;;4960397;28;20206;-88
2022/08/30 02:08:41;;;;;;;6.80;2.10;;;14.00;83.70;;;;;;4960217;28;20175;-88
2022/08/30 02:11:08;;;;;;;3.60;2.30;;;14.00;83.80;;;;;;4960100;28;20646;-88
2022/08/30 02:13:35;;;;;;;5.73;2.10;;;14.00;83.80;;;;;;4960616;28;20630;-88
2022/08/30 02:16:01;;;;;;;7.20;2.40;;;14.00;83.80;;;;;;4959999;28;20183;-88
2022/08/30 02:18:26;;;;;;;4.67;1.93;;;14.00;84.00;;;;;;4977361;28;20182;-87
2022/08/30 02:20:52;;;;;;;9.90;2.30;;;14.00;84.00;;;;;;4959927;28;20281;-88
2022/08/30 02:23:18;;;;;;;3.83;2.13;;;13.90;84.00;;;;;;4959819;28;20346;-88
2022/08/30 02:25:44;;;;;;;3.13;2.07;;;13.90;83.90;;;;;;4977082;28;20206;-88
2022/08/30 02:28:10;;;;;;;8.57;2.37;;;13.90;83.90;;;;;;4959853;28;20561;-88
2022/08/30 02:30:36;;;;;;;4.07;2.47;;;14.00;83.90;;;;;;4977129;28;20189;-88
2022/08/30 02:33:02;;;;;;;2.43;1.90;;;14.00;83.80;;;;;;4959889;28;20215;-88
2022/08/30 02:35:27;;;;;;;3.27;1.90;;;14.00;83.80;;;;;;4959752;28;20186;-88
2022/08/30 02:37:53;;;;;;;3.63;2.10;;;14.00;83.80;;;;;;4960027;28;20190;-88
2022/08/30 02:40:21;;;;;;;4.37;2.33;;;14.00;83.70;;;;;;4960436;28;20189;-88
2022/08/30 02:42:47;;;;;;;3.13;2.50;;;14.00;83.70;;;;;;4960386;28;20198;-87
2022/08/30 02:45:14;;;;;;;5.20;2.67;;;14.00;83.70;;;;;;4959522;28;20207;-88
2022/08/30 02:47:40;;;;;;;3.80;2.13;;;14.10;83.80;;;;;;4959476;28;20206;-88
2022/08/30 02:50:07;;;;;;;7.43;2.40;;;14.10;83.70;;;;;;4976724;28;20178;-87
2022/08/30 02:52:33;;;;;;;3.33;2.40;;;14.00;83.70;;;;;;4959768;28;20199;-88
2022/08/30 02:54:59;;;;;;;9.20;2.37;;;14.00;83.70;;;;;;4959281;28;20645;-88
2022/08/30 02:57:24;;;;;;;6.30;2.63;;;14.00;83.70;;;;;;4960181;28;20179;-88
2022/08/30 02:59:50;;;;;;;4.33;2.13;;;14.00;83.80;;;;;;4960402;28;20175;-88
2022/08/30 03:02:16;;;;;;;3.57;2.20;;;13.90;83.90;;;;;;4959150;28;20174;-88
2022/08/30 03:04:45;;;;;;;5.27;2.10;;;13.90;84.00;;;;;;4976471;28;20167;-88
2022/08/30 03:07:11;;;;;;;6.20;2.23;;;13.90;84.10;;;;;;4959176;28;20174;-88
2022/08/30 03:09:37;;;;;;;3.83;2.70;;;13.90;84.20;;;;;;4976597;28;20162;-88
2022/08/30 03:12:05;;;;;;;2.93;2.17;;;13.90;84.20;;;;;;4958976;28;20185;-88
2022/08/30 03:14:32;;;;;;;5.77;2.63;;;13.90;84.20;;;;;;4958959;28;20560;-87
2022/08/30 03:16:58;;;;;;;3.07;2.50;;;13.90;84.20;;;;;;4958937;28;20688;-88
2022/08/30 03:19:24;;;;;;;7.33;2.03;;;13.90;84.10;;;;;;4958897;28;20213;-88
2022/08/30 03:21:50;;;;;;;4.80;2.10;;;13.90;84.20;;;;;;4959214;28;20179;-88
2022/08/30 03:24:16;;;;;;;3.97;2.50;;;13.90;84.30;;;;;;4959137;28;20223;-88
2022/08/30 03:26:41;;;;;;;3.63;2.27;;;13.90;84.40;;;;;;4958798;28;20681;-88
2022/08/30 03:29:07;;;;;;;7.40;2.60;;;13.90;84.50;;;;;;4958713;28;20214;-88
2022/08/30 03:31:32;;;;;;;3.43;2.00;;;13.90;84.50;;;;;;4958950;28;20202;-88
2022/08/30 03:33:58;;;;;;;4.77;2.40;;;13.90;84.60;;;;;;4958474;28;20314;-88
2022/08/30 03:36:23;;;;;;;3.90;2.50;;;13.90;84.70;;;;;;4958637;28;20190;-88
2022/08/30 03:38:49;;;;;;;3.10;2.43;;;13.90;84.70;;;;;;4958625;28;20179;-88
2022/08/30 03:41:16;;;;;;;5.60;2.20;;;13.90;84.80;;;;;;4958776;28;20554;-88
2022/08/30 03:43:42;;;;;;;3.30;2.40;;;13.90;84.80;;;;;;4975785;28;20777;-88
2022/08/30 03:46:07;;;;;;;8.70;2.70;;;13.90;84.90;;;;;;4958512;28;20198;-88
2022/08/30 03:48:33;;;;;;;9.77;2.60;;;14.00;84.90;;;;;;4958445;28;20182;-88
2022/08/30 03:50:58;;;;;;;4.17;2.60;;;14.00;85.00;;;;;;4958843;28;20170;-88
2022/08/30 03:53:24;;;;;;;4.73;2.37;;;14.00;84.90;;;;;;4958224;28;20202;-88
2022/08/30 03:55:49;;;;;;;10.00;2.30;;;14.00;84.90;;;;;;4959296;28;20178;-88
2022/08/30 03:58:15;;;;;;;4.43;2.20;;;14.00;84.90;;;;;;4958156;28;20179;-88
2022/08/30 04:00:41;;;;;;;4.80;2.33;;;14.00;84.90;;;;;;4958532;28;20183;-88
2022/08/30 04:03:07;;;;;;;2.47;2.17;;;14.00;84.90;;;;;;4958580;28;20768;-88
2022/08/30 04:05:33;;;;;;;4.10;2.60;;;14.00;85.00;;;;;;4958093;28;20256;-88
2022/08/30 04:07:59;;;;;;;2.63;2.10;;;14.00;85.10;;;;;;4958265;28;20182;-88
2022/08/30 04:10:25;;;;;;;4.07;1.93;;;14.00;85.00;;;;;;4957997;28;20614;-88
2022/08/30 04:12:51;;;;;;;3.67;2.70;;;14.00;85.00;;;;;;4975156;28;20212;-88
2022/08/30 04:15:18;;;;;;;9.50;2.20;;;14.10;85.10;;;;;;4957889;28;20179;-88
2022/08/30 04:17:44;;;;;;;4.83;2.63;;;14.10;85.00;;;;;;4957888;28;20241;-88
2022/08/30 04:20:10;;;;;;;7.20;2.10;;;14.10;85.00;;;;;;4957481;28;20187;-88
2022/08/30 04:22:35;;;;;;;2.33;2.10;;;14.10;84.90;;;;;;4958092;28;20562;-88
2022/08/30 04:25:05;;;;;;;6.93;2.33;;;14.00;84.90;;;;;;4957812;28;20209;-88
2022/08/30 04:27:31;;;;;;;2.93;2.03;;;14.00;84.90;;;;;;4958446;28;20178;-88
2022/08/30 04:29:58;;;;;;;4.10;2.27;;;14.00;85.00;;;;;;4957871;28;20178;-88
2022/08/30 04:32:24;;;;;;;6.80;2.40;;;14.00;85.10;;;;;;4975035;28;20251;-88
2022/08/30 04:34:56;;;;;;;6.47;2.60;;;14.00;85.10;;;;;;4958584;28;20203;-88
2022/08/30 04:37:22;;;;;;;5.73;2.20;;;13.90;85.20;;;;;;4974886;28;20175;-88
2022/08/30 04:39:47;;;;;;;3.97;2.57;;;14.00;85.30;;;;;;4974955;28;20241;-88
2022/08/30 04:42:13;;;;;;;5.03;2.37;;;13.90;85.30;;;;;;4974900;28;20652;-88
2022/08/30 04:44:39;;;;;;;4.90;1.90;;;14.00;85.30;;;;;;4957504;28;20194;-88
2022/08/30 04:47:05;;;;;;;5.03;2.13;;;14.00;85.30;;;;;;4957303;28;20252;-90
2022/08/30 04:49:31;;;;;;;4.00;2.30;;;14.00;85.30;;;;;;4957487;28;20664;-89
2022/08/30 04:51:57;;;;;;;3.33;2.37;;;14.10;85.20;;;;;;4957409;28;20638;-87
2022/08/30 04:54:22;;;;;;;2.87;2.30;;;14.10;85.10;;;;;;4957406;28;20209;-88
2022/08/30 04:56:48;;;;;;;3.10;2.17;;;14.20;85.30;;;;;;4974723;28;20171;-86
2022/08/30 04:59:13;;;;;;;6.10;2.10;;;14.20;85.30;;;;;;4957403;28;20179;-87
2022/08/30 05:01:39;;;;;;;5.83;2.20;;;14.20;85.40;;;;;;4957279;28;20175;-89
2022/08/30 05:04:06;;;;;;;10.67;2.30;;;14.20;85.40;;;;;;4957341;28;20205;-87
2022/08/30 05:06:31;;;;;;;6.00;2.03;;;14.20;85.50;;;;;;4957236;28;20228;-87
2022/08/30 05:08:59;;;;;;;3.13;2.17;;;14.20;85.60;;;;;;4974499;28;20695;-87
2022/08/30 05:11:25;;;;;;;3.23;2.07;;;14.20;85.60;;;;;;4957138;28;20209;-87
2022/08/30 05:13:51;;;;;;;6.90;2.27;;;14.30;85.80;;;;;;4957341;28;20194;-88
2022/08/30 05:16:18;;;;;;;2.37;2.10;;;14.30;85.70;;;;;;4974940;28;20258;-86
2022/08/30 05:18:45;;;;;;;3.47;2.30;;;14.30;85.70;;;;;;4957085;28;20269;-87
2022/08/30 05:21:19;;;;;;;3.83;2.30;;;14.30;85.80;;;;;;4957299;28;20216;-87
2022/08/30 05:23:45;;;;;;;4.93;2.40;;;14.30;85.60;;;;;;4974531;28;20265;-87
2022/08/30 05:26:15;;;;;;;8.33;1.60;;;14.30;85.50;;;;;;4957139;28;20206;-87
2022/08/30 05:28:41;;;;;;;3.43;2.00;;;14.30;85.60;;;;;;4974793;28;20167;-89
2022/08/30 05:31:17;;;;;;;2.37;2.00;;;14.30;85.70;;;;;;4958830;28;20237;-86
2022/08/30 05:33:43;;;;;;;7.70;2.30;;;14.30;85.80;;;;;;4960874;28;20225;-87
2022/08/30 05:36:10;;;;;;;3.60;2.40;;;14.40;85.90;;;;;;4960667;28;20190;-89
2022/08/30 05:38:35;;;;;;;4.20;2.30;;;14.40;85.90;;;;;;4960481;28;20178;-89
2022/08/30 05:41:01;;;;;;;4.63;2.93;;;14.40;85.80;;;;;;4978259;28;20232;-89
2022/08/30 05:43:27;;;;;;;4.43;2.50;;;14.40;85.80;;;;;;4960527;28;20202;-88
2022/08/30 05:46:05;;;;;;;3.20;1.80;;;14.40;85.80;;;;;;4960452;28;20210;-89
2022/08/30 05:48:31;;;;;;;4.93;2.80;;;14.50;85.70;;;;;;4960549;28;20171;-88
2022/08/30 05:51:10;;;;;;;7.23;2.40;;;14.50;85.70;;;;;;4960505;28;20642;-88
2022/08/30 05:53:36;;;;;;;6.87;2.50;;;14.50;85.60;;;;;;4977890;28;20249;-88
2022/08/30 05:56:05;;;;;;;3.95;2.08;;;14.50;85.60;;;;;;4977695;28;20185;-88
2022/08/30 05:58:31;;;;;;;3.00;1.98;;;14.60;85.50;;;;;;4978012;28;20171;-89
2022/08/30 06:00:57;;;;;;;5.83;2.53;;;14.60;85.10;;;;;;4977934;28;20182;-88
2022/08/30 06:03:23;;;;;;;2.93;1.87;;;14.60;85.00;;;;;;4977879;28;20203;-87
2022/08/30 06:05:49;;;;;;;7.43;2.67;;;14.60;84.90;;;;;;4960724;28;20681;-87
2022/08/30 06:08:14;;;;;;;3.45;2.30;;;14.60;84.90;;;;;;4960256;28;20179;-87
2022/08/30 06:10:40;;;;;;;7.80;1.90;;;14.70;84.80;;;;;;4978326;28;20171;-87
2022/08/30 06:13:05;;;;;;;7.78;2.63;;;14.70;84.70;;;;;;4960619;28;20278;-88
2022/08/30 06:15:31;;;;;;;4.50;2.10;;;14.80;84.60;;;;;;4960824;28;20274;-87
2022/08/30 06:17:57;;;;;;;7.73;2.20;;;14.80;84.60;;;;;;4960219;28;20214;-87
2022/08/30 06:20:23;;;;;;;5.60;2.38;;;14.90;84.30;;;;;;4960386;28;20186;-86
2022/08/30 06:22:48;;;;;;;7.07;2.23;;;14.90;84.00;;;;;;4960570;28;20206;-87
2022/08/30 06:25:15;;;;;;;3.03;1.58;;;14.90;84.10;;;;;;4960178;28;20262;-87
2022/08/30 06:27:41;;;;;;;4.03;2.00;;;15.00;84.10;;;;;;4959818;28;20178;-88
2022/08/30 06:30:09;;;;;;;6.07;2.28;;;15.10;84.00;;;;;;4960137;28;20182;-88
2022/08/30 06:32:35;;;;;;;6.85;1.98;;;15.10;83.70;;;;;;4977099;28;20624;-88
2022/08/30 06:35:01;;;;;;;7.32;2.50;;;15.20;83.50;;;;;;4959812;28;20182;-89
2022/08/30 06:37:27;;;;;;;5.40;2.08;;;15.20;83.30;;;;;;4959696;28;20178;-87
2022/08/30 06:39:52;;;;;;;5.32;2.65;;;15.30;83.70;;;;;;4977138;28;20644;-87
2022/08/30 06:42:18;;;;;;;2.70;1.95;;;15.30;83.30;;;;;;4959447;28;20649;-87
2022/08/30 06:44:44;;;;;;;7.57;2.08;;;15.40;83.20;;;;;;4959465;28;20276;-87
2022/08/30 06:47:10;;;;;;;4.97;2.10;;;15.40;82.70;;;;;;4959579;28;20289;-87
2022/08/30 06:49:35;;;;;;;2.42;1.65;;;15.40;82.70;;;;;;4977743;28;20179;-86
2022/08/30 06:52:01;;;;;;;2.10;1.90;;;15.50;82.50;;;;;;4959567;28;20175;-86
2022/08/30 06:54:27;;;;;;;4.45;1.88;;;15.50;82.30;;;;;;4959583;28;20293;-87
2022/08/30 06:56:52;;;;;;;3.05;1.80;;;15.50;82.40;;;;;;4959734;28;20187;-86
2022/08/30 06:59:18;;;;;;;3.33;2.00;;;15.50;82.40;;;;;;4976950;28;20174;-86
2022/08/30 07:01:43;;;;;;;3.75;2.20;;;15.50;82.50;;;;;;4959653;28;20183;-88
2022/08/30 07:04:09;;;;;;;2.70;1.75;;;15.50;82.70;;;;;;4959488;28;20198;-87
2022/08/30 07:06:34;;;;;;;3.58;2.13;;;15.50;82.80;;;;;;4959375;28;20206;-86
2022/08/30 07:09:00;;;;;;;3.58;1.75;;;15.60;82.70;;;;;;4976978;28;20706;-86
2022/08/30 07:11:34;;;;;;;9.07;2.45;;;15.70;83.00;;;;;;4959327;28;20234;-87
2022/08/30 07:14:00;;;;;;;1.95;1.75;;;15.70;83.20;;;;;;4976335;28;20213;-87
2022/08/30 07:16:27;;;;;;;3.95;2.10;;;15.70;83.10;;;;;;4959097;28;20646;-87
2022/08/30 07:18:55;;;;;;;3.85;2.05;;;15.70;83.00;;;;;;4958966;28;20211;-87
2022/08/30 07:21:35;;;;;;;3.38;2.38;;;15.80;83.10;;;;;;4958960;28;20174;-87
2022/08/30 07:24:02;;;;;;;5.40;2.47;;;15.80;82.90;;;;;;4975911;28;20591;-87
2022/08/30 07:26:40;;;;;;;7.82;1.90;;;15.90;83.00;;;;;;4958141;28;20206;-88
2022/08/30 07:29:07;;;;;;;2.83;2.03;;;16.00;83.10;;;;;;4958875;28;20209;-87
2022/08/30 07:31:34;;;;;;;5.03;2.25;;;16.10;83.00;;;;;;4958664;28;20715;-88
2022/08/30 07:34:01;;;;;;;6.03;1.90;;;16.10;83.00;;;;;;4958420;28;20215;-86
2022/08/30 07:36:27;;;;;;;4.57;1.85;;;16.30;82.90;;;;;;4958705;28;20182;-87
2022/08/30 07:38:53;;;;;;;5.15;2.00;;;16.30;82.80;;;;;;4975904;28;20576;-86
2022/08/30 07:41:26;;;;;;;2.58;1.83;;;16.50;82.80;;;;;;4958759;28;20175;-89
2022/08/30 07:43:51;;;;;;;4.18;2.00;;;16.60;82.60;;;;;;4958864;28;20680;-87
2022/08/30 07:46:18;;;;;;;3.65;1.90;;;16.70;82.60;;;;;;4958302;28;20202;-86
2022/08/30 07:48:43;;;;;;;4.93;1.75;;;16.80;82.50;;;;;;4958367;28;20178;-87
2022/08/30 07:51:12;;;;;;;4.32;1.77;;;16.90;82.40;;;;;;4958234;28;20179;-87
2022/08/30 07:53:37;;;;;;;14.40;2.22;;;17.10;82.40;;;;;;4975211;28;20237;-86
2022/08/30 07:56:03;;;;;;;2.85;1.70;;;17.20;82.20;;;;;;4957512;28;20182;-89
2022/08/30 07:58:28;;;;;;;2.25;1.20;;;17.30;81.50;;;;;;4958362;28;20193;-87
2022/08/30 08:00:58;;;;;;;2.10;1.58;;;17.50;81.30;;;;;;4958662;28;20592;-86
2022/08/30 08:03:24;;;;;;;2.17;1.67;;;17.60;81.10;;;;;;4975876;28;20195;-86
2022/08/30 08:05:51;;;;;;;1.48;1.38;;;17.70;80.70;;;;;;4975289;28;20198;-87
2022/08/30 08:08:18;;;;;;;4.20;1.50;;;17.80;80.50;;;;;;4957921;28;20175;-86
2022/08/30 08:10:43;;;;;;;3.25;1.60;;;18.00;81.10;;;;;;4975308;28;20666;-85
2022/08/30 08:13:09;;;;;;;4.72;1.70;;;18.00;80.10;;;;;;4957877;28;20218;-86
2022/08/30 08:15:36;;;;;;;4.70;1.65;;;18.00;80.10;;;;;;4957864;28;20182;-86
2022/08/30 08:18:02;;;;;;;1.98;1.23;;;18.20;80.50;;;;;;4975119;28;20182;-85
2022/08/30 08:20:28;;;;;;;2.17;1.48;;;18.20;79.80;;;;;;4975131;28;20171;-87
2022/08/30 08:22:54;;;;;;;3.00;1.45;;;18.30;79.80;;;;;;4957770;28;20199;-87
2022/08/30 08:25:20;;;;;;;4.32;1.48;;;18.30;79.30;;;;;;4957718;28;20243;-87
2022/08/30 08:27:47;;;;;;;4.75;1.70;;;18.30;79.40;;;;;;4974866;28;20178;-88
2022/08/30 08:30:13;;;;;;;4.88;1.48;;;18.50;80.10;;;;;;4957806;28;20178;-87
2022/08/30 08:32:39;;;;;;;1.88;1.15;;;18.60;79.50;;;;;;4957723;28;20261;-87
2022/08/30 08:35:05;;;;;;;3.95;1.35;;;18.60;78.20;;;;;;4957685;28;20175;-86
2022/08/30 08:37:31;;;;;;;2.40;1.55;;;18.80;78.50;;;;;;4957756;28;20178;-85
2022/08/30 08:39:56;;;;;;;2.25;1.73;;;18.70;77.30;;;;;;4957524;28;20629;-86
2022/08/30 08:42:37;;;;;;;2.50;1.25;;;18.80;77.60;;;;;;4957517;28;20179;-87
2022/08/30 08:45:15;;;;;;;1.35;1.25;;;18.90;77.80;;;;;;4974831;28;20331;-87
2022/08/30 08:47:59;;;;;;;1.25;1.02;;;18.80;77.20;;;;;;4957776;28;20171;-88
2022/08/30 08:50:24;;;;;;;2.20;1.50;;;18.90;77.10;;;;;;4957470;28;20199;-88
2022/08/30 08:55:59;;;;;;;1.48;1.00;;;19.00;76.50;;;;;;4975051;28;20209;-88
2022/08/30 08:58:28;;;;;;;2.03;1.08;;;19.00;77.10;;;;;;4957346;28;20174;-89
2022/08/30 09:00:56;;;;;;;1.73;1.10;;;19.10;77.10;;;;;;4975077;28;20181;-88
2022/08/30 09:03:25;;;;;;;5.78;1.33;;;19.20;76.80;;;;;;4957552;28;20216;-88
2022/08/30 09:05:52;;;;;;;2.03;1.00;;;19.20;76.40;;;;;;4974734;28;20556;-89
2022/08/30 09:08:19;;;;;;;5.55;1.50;;;19.10;75.80;;;;;;4958712;28;20186;-91
2022/08/30 09:11:05;;;;;;;1.65;1.05;;;19.00;75.90;;;;;;4974638;28;20198;-87
2022/08/30 09:13:32;;;;;;;3.80;0.85;;;19.00;76.30;;;;;;4957351;28;20191;-88
2022/08/30 09:15:58;;;;;;;3.75;1.00;;;19.00;76.00;;;;;;4958036;28;20182;-89
2022/08/30 09:18:42;;;;;;;2.92;1.30;;;18.90;76.10;;;;;;4957600;28;20199;-88
2022/08/30 09:21:09;;;;;;;1.90;0.95;;;18.90;76.00;;;;;;4958150;28;20641;-88
2022/08/30 09:23:34;;;;;;;1.85;1.05;;;18.90;76.90;;;;;;4974575;28;20302;-87
2022/08/30 09:26:02;;;;;;;2.33;0.85;;;18.80;76.60;;;;;;4957212;28;20673;-87
2022/08/30 09:28:32;;;;;;;1.10;0.90;;;18.80;77.30;;;;;;4974401;28;20193;-87
2022/08/30 09:31:03;;;;;;;2.38;1.08;;;18.80;77.60;;;;;;4957251;28;20197;-86
2022/08/30 09:33:29;;;;;;;1.55;1.25;;;18.80;77.50;;;;;;4974438;28;20210;-86
2022/08/30 09:35:55;;;;;;;2.60;1.20;;;18.80;77.50;;;;;;4957539;28;20193;-88
2022/08/30 09:38:22;;;;;;;1.60;0.95;;;18.80;77.00;;;;;;4974576;28;20265;-87
2022/08/30 09:40:58;;;;;;;4.30;1.20;;;18.80;77.40;;;;;;4974394;28;20175;-88
2022/08/30 09:43:27;;;;;;;2.72;1.42;;;18.80;76.80;;;;;;4957435;28;20293;-87
2022/08/30 09:46:13;;;;;;;2.60;1.17;;;18.90;76.70;;;;;;4974726;28;20212;-87
2022/08/30 09:48:42;;;;;;;2.25;0.93;;;18.90;77.10;;;;;;4956730;28;20178;-87
2022/08/30 09:51:12;;;;;;;4.47;1.05;;;19.00;76.30;;;;;;4957231;28;20171;-87
2022/08/30 09:53:49;;;;;;;3.45;2.20;;;19.00;76.60;;;;;;4974372;28;20194;-89
2022/08/30 09:56:24;;;;;;;1.50;1.10;;;19.10;76.60;;;;;;4975182;28;20715;-92
2022/08/30 09:59:15;;;;;;;1.58;0.80;;;19.00;75.60;;;;;;4957999;28;20182;-90
2022/08/30 10:01:47;;;;;;;3.58;0.90;;;19.10;75.30;;;;;;4942637;28;20211;-87
2022/08/30 10:04:57;;;;;;;1.13;0.80;;;19.20;75.50;;;;;;4974230;28;20198;-87
2022/08/30 10:08:08;;;;;;;1.73;1.00;;;19.20;75.50;;;;;;4956826;28;20285;-87
2022/08/30 10:10:51;;;;;;;1.58;1.13;;;19.20;75.00;;;;;;4946554;28;20277;-89
2022/08/30 10:13:23;;;;;;;4.95;1.08;;;19.20;75.00;;;;;;4974018;28;20191;-87
2022/08/30 10:16:03;;;;;;;1.50;1.08;;;19.20;74.50;;;;;;4973949;28;20162;-88
2022/08/30 10:18:47;;;;;;;5.28;1.23;;;19.20;74.00;;;;;;4958977;28;20261;-88
2022/08/30 10:21:25;;;;;;;2.42;1.15;;;19.30;74.40;;;;;;4977483;28;20174;-89
2022/08/30 10:24:02;;;;;;;1.20;1.00;;;19.30;73.30;;;;;;4977494;28;20195;-88
2022/08/30 10:26:44;;;;;;;1.40;1.20;;;19.50;72.20;;;;;;4977086;28;20202;-88
2022/08/30 10:29:15;;;;;;;2.95;1.23;;;19.70;70.40;;;;;;4977497;28;20668;-88
2022/08/30 10:31:47;;;;;;;2.97;0.90;;;20.00;69.80;;;;;;4977209;28;20174;-88
2022/08/30 10:34:39;;;;;;;2.60;1.27;;;20.30;68.70;;;;;;4977257;28;20210;-88
2022/08/30 10:37:16;;;;;;;4.00;1.08;;;20.50;68.60;;;;;;4959650;28;20191;-88
2022/08/30 10:39:48;;;;;;;4.20;1.10;;;20.60;68.30;;;;;;4977292;28;20198;-88
2022/08/30 10:42:46;;;;;;;2.42;1.20;;;20.70;67.20;;;;;;4976957;28;20174;-89
2022/08/30 10:45:15;;;;;;;1.10;1.00;;;20.80;67.60;;;;;;4974479;28;20191;-89
2022/08/30 10:47:48;;;;;;;3.00;1.10;;;20.90;67.50;;;;;;4959490;28;20210;-89
2022/08/30 10:50:28;;;;;;;3.00;1.30;;;21.00;66.00;;;;;;4976966;28;20165;-87
2022/08/30 10:53:05;;;;;;;1.80;1.05;;;21.20;66.80;;;;;;4959642;28;20201;-87
2022/08/30 10:55:36;;;;;;;1.85;1.00;;;21.30;66.90;;;;;;4960421;28;20688;-88
2022/08/30 10:58:04;;;;;;;2.22;1.05;;;21.50;65.60;;;;;;4960080;28;20234;-88
2022/08/30 11:00:41;;;;;;;3.75;1.20;;;21.40;63.70;;;;;;4959715;28;20186;-88
2022/08/30 11:03:17;;;;;;;3.22;1.17;;;21.40;65.60;;;;;;4960228;28;20205;-88
2022/08/30 11:06:00;;;;;;;2.28;1.02;;;21.40;64.60;;;;;;4959251;28;20209;-88
2022/08/30 11:08:37;;;;;;;2.00;1.00;;;21.50;63.90;;;;;;4976945;28;20515;-88
2022/08/30 11:11:40;;;;;;;1.65;1.02;;;21.40;66.20;;;;;;4976753;28;20175;-87
2022/08/30 11:14:08;;;;;;;4.20;1.20;;;21.50;65.30;;;;;;4959310;28;20196;-87
2022/08/30 11:16:40;;;;;;;2.35;0.90;;;21.60;64.00;;;;;;4959727;28;20273;-87
2022/08/30 11:19:15;;;;;;;2.00;1.20;;;21.70;64.00;;;;;;4959285;28;20174;-87
2022/08/30 11:21:43;;;;;;;1.55;1.25;;;21.70;64.30;;;;;;4959379;28;20648;-87
2022/08/30 11:24:21;;;;;;;2.03;0.93;;;21.60;64.60;;;;;;4960200;28;20203;-87
2022/08/30 11:26:49;;;;;;;1.33;0.80;;;21.50;64.30;;;;;;4959185;28;20222;-87
2022/08/30 11:29:36;;;;;;;2.63;1.00;;;21.30;61.10;;;;;;4959271;28;20668;-88
2022/08/30 11:32:10;;;;;;;3.08;1.10;;;21.30;61.70;;;;;;4959174;28;20181;-88
2022/08/30 11:34:45;;;;;;;2.05;1.10;;;21.00;62.10;;;;;;4958926;28;20228;-88
2022/08/30 11:37:34;;;;;;;1.23;1.02;;;20.60;62.80;;;;;;4959074;28;20186;-89
2022/08/30 11:40:36;;;;;;;4.55;1.20;;;20.40;65.60;;;;;;4976508;28;20221;-89
2022/08/30 11:43:34;;;;;;;2.05;1.10;;;20.20;65.00;;;;;;4917241;29;20216;-88
2022/08/30 11:46:26;;;;;;;1.50;1.00;;;20.50;64.60;;;;;;4958742;28;20211;-88
2022/08/30 11:48:58;;;;;;;2.88;0.90;;;20.70;63.80;;;;;;4959840;28;20317;-89
2022/08/30 11:51:45;;;;;;;1.63;1.10;;;20.60;64.30;;;;;;4976335;28;20155;-88
2022/08/30 11:54:22;;;;;;;4.38;1.13;;;20.40;62.70;;;;;;4958556;28;20201;-88
2022/08/30 11:57:08;;;;;;;1.20;1.10;;;20.30;65.10;;;;;;4977002;28;20201;-88
2022/08/30 11:59:39;;;;;;;4.05;1.23;;;20.20;65.20;;;;;;4958612;28;20182;-88
2022/08/30 12:02:06;;;;;;;2.20;1.30;;;20.10;67.20;;;;;;4976061;28;20159;-88
2022/08/30 12:04:41;;;;;;;3.13;1.15;;;20.00;67.40;;;;;;4958729;28;20269;-88
2022/08/30 12:07:08;;;;;;;1.75;1.15;;;20.00;67.50;;;;;;4975436;28;20218;-87
2022/08/30 12:09:33;;;;;;;4.18;0.80;;;20.00;66.20;;;;;;4958351;28;20178;-87
2022/08/30 12:12:29;;;;;;;3.28;1.05;;;20.00;65.60;;;;;;4958043;28;20313;-89
2022/08/30 12:14:56;;;;;;;2.42;1.10;;;20.00;65.50;;;;;;4959030;28;20242;-87
2022/08/30 12:20:17;;;;;;;4.40;1.00;;;20.30;66.50;;;;;;4978200;28;20185;-91
2022/08/30 12:22:44;;;;;;;3.00;1.23;;;20.60;65.90;;;;;;4959176;28;20688;-89
2022/08/30 12:25:32;;;;;;;1.38;1.00;;;20.70;64.80;;;;;;4963675;28;20553;-90
2022/08/30 12:28:16;;;;;;;3.03;1.10;;;20.60;65.50;;;;;;4963434;28;20167;-90
2022/08/30 12:30:43;;;;;;;2.05;1.40;;;20.50;65.00;;;;;;4959915;28;20318;-88
2022/08/30 12:33:11;;;;;;;1.00;0.93;;;20.30;64.70;;;;;;4977342;28;20677;-88
2022/08/30 12:35:38;;;;;;;1.13;1.00;;;20.20;65.70;;;;;;4977525;28;20178;-88
2022/08/30 12:38:18;;;;;;;4.03;0.90;;;20.20;66.80;;;;;;4978728;28;20206;-87
2022/08/30 12:40:50;;;;;;;1.75;0.93;;;20.00;66.40;;;;;;4961597;28;20183;-88
2022/08/30 12:43:43;;;;;;;2.35;1.20;;;20.00;67.30;;;;;;4961622;28;20210;-88
2022/08/30 12:46:12;;;;;;;4.15;0.98;;;20.00;67.70;;;;;;4960402;28;20206;-89
2022/08/30 12:48:39;;;;;;;1.65;1.00;;;20.00;66.40;;;;;;4977146;28;20163;-87
2022/08/30 12:51:06;;;;;;;1.08;0.98;;;20.30;67.10;;;;;;4959768;28;20179;-87
2022/08/30 12:53:40;;;;;;;2.95;1.20;;;20.30;65.60;;;;;;4977071;28;20209;-87
2022/08/30 12:56:17;;;;;;;3.88;1.30;;;20.20;65.60;;;;;;4959946;28;20198;-87
2022/08/30 12:58:46;;;;;;;1.73;0.90;;;20.60;65.30;;;;;;4960052;28;20175;-87
2022/08/30 13:01:11;;;;;;;0.77;0.73;;;20.70;65.00;;;;;;4960479;28;20199;-87
2022/08/30 13:03:37;;;;;;;1.10;1.05;;;20.50;65.70;;;;;;4960403;28;20199;-87
2022/08/30 13:06:06;;;;;;;1.50;0.85;;;20.80;65.90;;;;;;4961840;28;20210;-87